Kennebunkport, ME

8:19 AM EST on January 26, 2015 (GMT -0500)
Skyhaven | Change Station
CLOSE
Current Station
Airport
Location: Rochester,
Elevation: 322 ft
Nearby Weather Stations

Elev 322 ft 43.28 °N, 70.92 °W | Updated 28 minutes ago

Partly Cloudy
Partly Cloudy
-1 °F
Feels Like -13 °F
N
6
Wind Variable Wind from NW

Today
High -- | Low -- °F
--% Chance of Precip.
Yesterday
High -- | Low -- °F
Precip. -- in
7:04 AM 4:45 PM
Waxing Crescent, 43% visible
Pressure 30.16 in
Visibility 10.0 miles
Clouds Clear
Windchill -13 °F
Dew Point -6 °F
Humidity 79%
Rainfall 0.00 in
Snow Depth Not available.
UV 0 out of 12
Pollen .10 out of 12
Air Quality Not available.
Flu Activity Not available.
METAR KDAW 261251Z AUTO 31005KT 10SM CLR M18/M21 A3014 RMK AO2 SLP211 T11831211

More Conditions Fewer Conditions

Pressure 30.16 in
Visibility 10.0 miles
Clouds Clear
Windchill -13 °F
Dew Point -6 °F
Humidity 79%
Rainfall 0.00 in
Snow Depth Not available.
UV 0 out of 12
Pollen .10 out of 12
Air Quality Not available.
Flu Activity Not available.
METAR KDAW 261251Z AUTO 31005KT 10SM CLR M18/M21 A3014 RMK AO2 SLP211 T11831211

More Conditions Fewer Conditions

10-Day Weather Forecast

Almanac

Astronomy

Jan. 26, 2015 Rise Set
Actual Time
Civil Twilight
Nautical Twilight
Astronomical Twilight
Moon
Length of Visible Light
Length of Day
Tomorrow will be .
, % of the Moon is Illuminated

Today's Extremes

State Highs State Lows

Community

WunderPhotos

Upload Photos

1,790,192 photos uploaded!

WunderBlogs® & News

Nearby

Air Quality

  Air Quality AQ Index Pollutant
Not available.

Snow Depth

Station Depth Elevation

Earthquake Activity

City Distance Mag. Time & Date
Minimum magnitude displayed is 2.5.

Coastal Water Temperatures

Place Temperature

Nearby Weather Stations